createdAt,value
2023-03-06T00:00:59.818Z,100.00
2023-03-06T00:03:28.447Z,100.00
2023-03-06T00:05:57.957Z,100.00
2023-03-06T00:08:27.472Z,100.00
2023-03-06T00:10:55.264Z,100.00
2023-03-06T00:13:23.051Z,100.00
2023-03-06T00:15:50.734Z,100.00
2023-03-06T00:18:18.365Z,100.00
2023-03-06T00:20:46.062Z,100.00
2023-03-06T00:23:13.763Z,100.00
2023-03-06T00:25:47.605Z,100.00
2023-03-06T00:28:16.170Z,100.00
2023-03-06T00:30:44.369Z,100.00
2023-03-06T00:33:12.427Z,100.00
2023-03-06T00:35:41.075Z,100.00
2023-03-06T00:38:11.711Z,100.00
2023-03-06T00:40:39.467Z,100.00
2023-03-06T00:43:07.098Z,100.00
2023-03-06T00:45:36.012Z,100.00
2023-03-06T00:48:03.908Z,100.00
2023-03-06T00:50:31.775Z,100.00
2023-03-06T00:53:00.595Z,100.00
2023-03-06T00:55:29.697Z,100.00
2023-03-06T00:57:57.371Z,100.00
2023-03-06T01:00:25.415Z,100.00
2023-03-06T01:02:53.993Z,100.00
2023-03-06T01:05:23.021Z,100.00
2023-03-06T01:07:50.675Z,100.00
2023-03-06T01:10:20.008Z,100.00
2023-03-06T01:12:48.560Z,100.00
2023-03-06T01:15:16.225Z,100.00
2023-03-06T01:17:43.829Z,100.00
2023-03-06T01:20:14.811Z,100.00
2023-03-06T01:22:43.077Z,100.00
2023-03-06T01:25:11.484Z,100.00
2023-03-06T01:27:39.870Z,100.00
2023-03-06T01:30:11.928Z,100.00
2023-03-06T01:32:39.710Z,100.00
2023-03-06T01:35:08.015Z,100.00
2023-03-06T01:37:40.112Z,100.00
2023-03-06T01:40:12.378Z,100.00
2023-03-06T01:42:40.346Z,100.00
2023-03-06T01:45:28.391Z,100.00
2023-03-06T01:47:56.010Z,100.00
2023-03-06T01:50:23.716Z,100.00
2023-03-06T01:52:58.536Z,100.00
2023-03-06T01:55:34.353Z,100.00
2023-03-06T01:58:07.826Z,100.00
2023-03-06T02:00:35.482Z,100.00
2023-03-06T02:03:14.551Z,100.00
2023-03-06T02:05:43.361Z,99.95
2023-03-06T02:08:12.853Z,97.04
2023-03-06T02:10:50.487Z,96.09
2023-03-06T02:13:18.014Z,95.28
2023-03-06T02:15:45.768Z,94.71
2023-03-06T02:18:13.723Z,93.64
2023-03-06T02:20:51.386Z,92.48
2023-03-06T02:23:30.962Z,89.58
2023-03-06T02:26:00.177Z,86.91
2023-03-06T02:28:28.284Z,85.21
2023-03-06T02:30:57.155Z,86.96
2023-03-06T02:33:27.919Z,85.94
2023-03-06T02:36:02.502Z,84.04
2023-03-06T02:38:51.417Z,87.34
2023-03-06T02:41:20.727Z,88.14
2023-03-06T02:43:52.374Z,89.64
2023-03-06T02:46:20.091Z,89.04
2023-03-06T02:48:47.643Z,89.68
2023-03-06T02:51:15.275Z,90.68
2023-03-06T02:53:43.478Z,90.45
2023-03-06T02:56:11.178Z,89.87
2023-03-06T02:58:38.951Z,88.72
2023-03-06T03:01:07.329Z,89.12
2023-03-06T03:03:35.668Z,88.16
2023-03-06T03:06:06.101Z,89.20
2023-03-06T03:08:35.423Z,88.89
2023-03-06T03:11:05.088Z,87.49
2023-03-06T03:13:39.099Z,86.97
2023-03-06T03:16:14.482Z,88.00
2023-03-06T03:18:44.844Z,86.69
2023-03-06T03:21:14.162Z,87.87
2023-03-06T03:23:41.816Z,85.34
2023-03-06T03:26:12.229Z,81.10
2023-03-06T03:28:43.299Z,79.90
2023-03-06T03:31:13.434Z,80.67
2023-03-06T03:33:41.469Z,80.19
2023-03-06T03:36:09.671Z,79.58
2023-03-06T03:38:41.292Z,80.97
2023-03-06T03:41:09.185Z,80.65
2023-03-06T03:43:37.153Z,79.88
2023-03-06T03:46:05.168Z,77.94
2023-03-06T03:48:33.065Z,78.27
2023-03-06T03:51:13.184Z,80.04
2023-03-06T03:53:45.711Z,81.04
2023-03-06T03:56:16.281Z,79.37
2023-03-06T03:58:52.932Z,78.27
2023-03-06T04:01:21.292Z,79.80
2023-03-06T04:03:48.882Z,83.40
2023-03-06T04:06:18.451Z,83.04
2023-03-06T04:08:47.326Z,78.01
2023-03-06T04:11:15.490Z,74.93
2023-03-06T04:13:44.217Z,71.35
2023-03-06T04:16:11.758Z,73.78
2023-03-06T04:18:40.738Z,69.74
2023-03-06T04:21:09.081Z,68.90
2023-03-06T04:23:37.523Z,69.03
2023-03-06T04:26:06.543Z,72.09
2023-03-06T04:28:34.154Z,70.49
2023-03-06T04:31:02.185Z,73.34
2023-03-06T04:33:31.664Z,71.17
2023-03-06T04:35:59.315Z,69.70
2023-03-06T04:38:30.530Z,68.60
2023-03-06T04:40:58.104Z,59.32
2023-03-06T04:43:25.684Z,56.43
2023-03-06T04:45:53.418Z,54.56
2023-03-06T04:48:20.990Z,49.51
2023-03-06T04:50:48.530Z,46.96
2023-03-06T04:53:17.212Z,46.05
2023-03-06T04:55:44.891Z,44.60
2023-03-06T04:58:15.273Z,41.96
2023-03-06T05:00:42.870Z,40.92
2023-03-06T05:03:12.429Z,39.78
2023-03-06T05:05:40.018Z,36.59
2023-03-06T05:08:07.923Z,35.31
2023-03-06T05:10:35.455Z,31.79
2023-03-06T05:13:03.127Z,32.14
2023-03-06T05:15:30.597Z,32.63
2023-03-06T05:17:58.252Z,32.76
2023-03-06T05:20:25.838Z,31.17
2023-03-06T05:22:53.530Z,30.51
2023-03-06T05:25:21.271Z,30.01
2023-03-06T05:27:49.498Z,28.21
2023-03-06T05:30:17.187Z,28.99
2023-03-06T05:32:45.080Z,26.11
2023-03-06T05:35:18.667Z,26.46
2023-03-06T05:37:47.344Z,23.55
2023-03-06T05:40:16.637Z,24.04
2023-03-06T05:42:44.231Z,23.06
2023-03-06T05:45:12.387Z,23.33
2023-03-06T05:47:40.084Z,22.57
2023-03-06T05:50:08.704Z,21.72
2023-03-06T05:52:36.728Z,21.08
2023-03-06T05:55:04.825Z,22.15
2023-03-06T05:57:32.637Z,21.85
2023-03-06T06:00:00.360Z,21.21
2023-03-06T06:02:28.096Z,23.18
2023-03-06T06:04:55.790Z,21.96
2023-03-06T06:07:23.539Z,22.43
2023-03-06T06:09:53.701Z,23.51
2023-03-06T06:12:21.362Z,23.62
2023-03-06T06:14:49.189Z,24.73
2023-03-06T06:17:17.047Z,24.45
2023-03-06T06:19:44.936Z,24.84
2023-03-06T06:22:12.867Z,24.50
2023-03-06T06:24:40.636Z,26.25
2023-03-06T06:27:08.656Z,23.59
2023-03-06T06:29:36.699Z,23.58
2023-03-06T06:32:04.340Z,23.80
2023-03-06T06:34:32.286Z,22.77
2023-03-06T06:37:01.451Z,23.14
2023-03-06T06:39:41.470Z,26.37
2023-03-06T06:42:30.509Z,26.01
2023-03-06T06:44:59.845Z,28.49
2023-03-06T06:47:27.514Z,27.07
2023-03-06T06:49:57.052Z,26.38
2023-03-06T06:52:25.519Z,27.22
2023-03-06T06:54:53.613Z,27.22
2023-03-06T06:57:22.073Z,27.79
2023-03-06T06:59:51.817Z,28.08
2023-03-06T07:02:20.955Z,28.38
2023-03-06T07:05:03.201Z,29.55
2023-03-06T07:07:36.704Z,29.38
2023-03-06T07:10:12.852Z,30.62
2023-03-06T07:12:40.581Z,30.76
2023-03-06T07:15:09.136Z,30.49
2023-03-06T07:17:36.833Z,31.40
2023-03-06T07:20:06.693Z,31.46
2023-03-06T07:22:49.845Z,31.91
2023-03-06T07:25:19.115Z,32.64
2023-03-06T07:27:52.851Z,32.47
2023-03-06T07:30:22.816Z,32.47
2023-03-06T07:32:53.780Z,33.14
2023-03-06T07:35:21.816Z,32.49
2023-03-06T07:37:49.404Z,32.73
2023-03-06T07:40:17.245Z,32.96
2023-03-06T07:42:44.797Z,32.92
2023-03-06T07:45:16.795Z,33.15
2023-03-06T07:47:44.629Z,34.70
2023-03-06T07:50:13.110Z,32.23
2023-03-06T07:52:40.702Z,41.67
2023-03-06T07:55:08.731Z,40.04
2023-03-06T07:57:36.869Z,36.35
2023-03-06T08:00:11.098Z,34.19
2023-03-06T08:02:43.084Z,33.49
2023-03-06T08:05:14.516Z,34.02
2023-03-06T08:07:45.908Z,34.38
2023-03-06T08:10:16.345Z,35.74
2023-03-06T08:12:44.120Z,36.17
2023-03-06T08:15:15.154Z,36.30
2023-03-06T08:17:42.830Z,37.33
2023-03-06T08:20:11.146Z,37.64
2023-03-06T08:22:39.412Z,36.90
2023-03-06T08:25:07.722Z,36.76
2023-03-06T08:27:35.761Z,37.81
2023-03-06T08:30:04.278Z,37.62
2023-03-06T08:32:32.073Z,38.56
2023-03-06T08:34:59.643Z,38.40
2023-03-06T08:37:27.227Z,42.82
2023-03-06T08:39:54.858Z,43.95
2023-03-06T08:42:22.486Z,43.65
2023-03-06T08:44:50.935Z,43.47
2023-03-06T08:47:18.415Z,45.15
2023-03-06T08:49:46.056Z,47.03
2023-03-06T08:52:13.770Z,43.74
2023-03-06T08:54:42.658Z,41.64
2023-03-06T08:57:10.170Z,41.81
2023-03-06T08:59:37.876Z,40.35
2023-03-06T09:02:07.059Z,38.90
2023-03-06T09:04:34.821Z,39.84
2023-03-06T09:07:02.389Z,39.22
2023-03-06T09:09:30.052Z,40.25
2023-03-06T09:11:57.635Z,46.48
2023-03-06T09:14:25.384Z,43.34
2023-03-06T09:16:52.984Z,41.14
2023-03-06T09:19:20.734Z,40.76
2023-03-06T09:21:49.466Z,40.49
2023-03-06T09:24:19.128Z,39.16
2023-03-06T09:26:48.030Z,39.91
2023-03-06T09:29:17.953Z,38.41
2023-03-06T09:31:46.809Z,38.20
2023-03-06T09:34:14.434Z,37.89
2023-03-06T09:36:55.644Z,37.66
2023-03-06T09:39:26.535Z,37.42
2023-03-06T09:41:55.818Z,38.25
2023-03-06T09:44:32.281Z,40.59
2023-03-06T09:47:23.803Z,39.66
2023-03-06T09:50:10.765Z,39.43
2023-03-06T09:52:58.486Z,36.51
2023-03-06T09:55:33.631Z,36.99
2023-03-06T09:58:07.427Z,36.93
2023-03-06T10:01:03.809Z,44.14
2023-03-06T10:03:50.591Z,45.03
2023-03-06T10:06:30.826Z,38.00
2023-03-06T10:09:07.529Z,37.71
2023-03-06T10:11:46.693Z,37.38
2023-03-06T10:14:38.896Z,37.21
2023-03-06T10:17:14.970Z,40.37
2023-03-06T10:19:42.913Z,37.40
2023-03-06T10:22:40.062Z,38.14
2023-03-06T10:25:28.288Z,37.78
2023-03-06T10:28:14.576Z,37.61
2023-03-06T10:30:47.094Z,36.92
2023-03-06T10:33:52.885Z,36.50
2023-03-06T10:36:22.935Z,36.66
2023-03-06T10:38:50.674Z,37.29
2023-03-06T10:41:38.599Z,36.04
2023-03-06T10:44:06.277Z,36.93
2023-03-06T10:46:37.226Z,36.91
2023-03-06T10:49:21.804Z,37.43
2023-03-06T10:52:15.845Z,37.83
2023-03-06T10:54:45.369Z,37.01
2023-03-06T10:57:30.848Z,37.72
2023-03-06T11:00:08.570Z,36.78
2023-03-06T11:02:38.893Z,36.12
2023-03-06T11:05:18.252Z,36.29
2023-03-06T11:07:57.946Z,36.09
2023-03-06T11:10:25.689Z,36.00
2023-03-06T11:13:01.878Z,36.38
2023-03-06T11:15:30.350Z,35.40
2023-03-06T11:18:08.722Z,35.61
2023-03-06T11:20:51.916Z,35.23
2023-03-06T11:23:41.639Z,35.61
2023-03-06T11:26:29.980Z,35.10
2023-03-06T11:29:16.552Z,36.70
2023-03-06T11:32:03.637Z,36.10
2023-03-06T11:34:40.856Z,36.07
2023-03-06T11:37:33.398Z,36.85
2023-03-06T11:40:19.110Z,36.75
2023-03-06T11:43:16.732Z,36.39
2023-03-06T11:46:20.392Z,36.57
2023-03-06T11:49:21.805Z,37.54
2023-03-06T11:51:55.521Z,36.91
2023-03-06T11:54:23.773Z,37.18
2023-03-06T11:56:56.667Z,37.28
2023-03-06T12:00:01.572Z,37.65
2023-03-06T12:02:43.254Z,37.21
2023-03-06T12:05:45.209Z,37.66
2023-03-06T12:08:50.345Z,38.20
2023-03-06T12:11:23.515Z,37.97
2023-03-06T12:16:26.469Z,38.15
2023-03-06T12:19:30.257Z,39.05
2023-03-06T12:22:53.373Z,38.68
2023-03-06T12:26:23.954Z,38.40
2023-03-06T12:29:09.840Z,38.93
2023-03-06T12:31:37.591Z,39.84
2023-03-06T12:34:15.821Z,39.90
2023-03-06T12:37:12.329Z,40.38
2023-03-06T12:39:58.218Z,40.98
2023-03-06T12:43:00.251Z,40.62
2023-03-06T12:45:34.871Z,39.81
2023-03-06T12:48:03.203Z,39.68
2023-03-06T12:50:33.976Z,39.44
2023-03-06T12:53:04.983Z,39.60
2023-03-06T12:55:46.758Z,40.81
2023-03-06T12:58:29.829Z,41.07
2023-03-06T13:01:04.424Z,41.85
2023-03-06T13:04:07.545Z,41.65
2023-03-06T13:06:44.984Z,41.80
2023-03-06T13:09:34.090Z,42.09
2023-03-06T13:12:34.194Z,41.82
2023-03-06T13:15:29.401Z,42.36
2023-03-06T13:17:57.640Z,41.81
2023-03-06T13:20:40.071Z,42.59
2023-03-06T13:23:29.884Z,42.81
2023-03-06T13:25:58.629Z,42.64
2023-03-06T13:28:50.948Z,42.36
2023-03-06T13:31:29.308Z,42.33
2023-03-06T13:34:05.257Z,43.76
2023-03-06T13:36:35.082Z,42.98
2023-03-06T13:39:05.319Z,42.87
2023-03-06T13:41:33.426Z,43.26
2023-03-06T13:44:24.020Z,43.60
2023-03-06T13:47:03.146Z,45.39
2023-03-06T13:49:31.656Z,43.83
2023-03-06T13:52:11.233Z,44.30
2023-03-06T13:55:00.214Z,44.63
2023-03-06T13:58:08.333Z,49.42
2023-03-06T14:00:56.564Z,47.80
2023-03-06T14:03:48.697Z,46.15
2023-03-06T14:06:35.099Z,47.82
2023-03-06T14:09:06.788Z,47.33
2023-03-06T14:11:40.301Z,47.35
2023-03-06T14:14:11.524Z,47.39
2023-03-06T14:16:49.763Z,45.72
2023-03-06T14:19:20.691Z,49.52
2023-03-06T14:21:53.353Z,55.20
2023-03-06T14:24:34.236Z,56.10
2023-03-06T14:27:02.164Z,56.45
2023-03-06T14:29:31.159Z,58.56
2023-03-06T14:32:01.673Z,57.37
2023-03-06T14:34:34.600Z,57.95
2023-03-06T14:37:08.623Z,56.36
2023-03-06T14:39:40.982Z,55.12
2023-03-06T14:42:17.931Z,52.34
2023-03-06T14:44:46.843Z,49.36
2023-03-06T14:47:23.625Z,48.95
2023-03-06T14:50:26.908Z,48.95
2023-03-06T14:53:01.068Z,49.02
2023-03-06T14:55:33.003Z,47.70
2023-03-06T14:58:02.964Z,47.46
2023-03-06T15:00:38.310Z,48.68
2023-03-06T15:03:13.132Z,48.02
2023-03-06T15:05:43.573Z,48.22
2023-03-06T15:08:18.236Z,49.02
2023-03-06T15:10:57.615Z,49.74
2023-03-06T15:13:27.920Z,48.78
2023-03-06T15:16:23.135Z,51.03
2023-03-06T15:18:59.662Z,50.57
2023-03-06T15:21:30.034Z,49.63
2023-03-06T15:23:58.502Z,50.08
2023-03-06T15:26:34.427Z,50.92
2023-03-06T15:29:22.257Z,49.92
2023-03-06T15:31:50.627Z,49.90
2023-03-06T15:34:24.039Z,50.28
2023-03-06T15:36:58.756Z,50.71
2023-03-06T15:39:44.696Z,51.37
2023-03-06T15:42:21.678Z,50.48
2023-03-06T15:44:56.168Z,50.27
2023-03-06T15:47:24.914Z,50.22
2023-03-06T15:49:53.535Z,50.09
2023-03-06T15:52:24.843Z,49.92
2023-03-06T15:54:52.543Z,50.04
2023-03-06T15:57:28.261Z,50.96
2023-03-06T15:59:56.915Z,50.08
2023-03-06T16:02:24.791Z,50.05
2023-03-06T16:04:54.082Z,50.22
2023-03-06T16:07:22.228Z,49.96
2023-03-06T16:09:52.136Z,49.80
2023-03-06T16:12:21.910Z,49.41
2023-03-06T16:14:50.169Z,49.33
2023-03-06T16:17:17.993Z,49.26
2023-03-06T16:19:48.076Z,49.59
2023-03-06T16:22:15.789Z,49.05
2023-03-06T16:24:43.675Z,48.94
2023-03-06T16:27:19.299Z,49.87
2023-03-06T16:29:46.980Z,48.79
2023-03-06T16:32:17.867Z,49.55
2023-03-06T16:34:48.109Z,49.19
2023-03-06T16:37:15.816Z,49.00
2023-03-06T16:39:43.425Z,49.03
2023-03-06T16:42:11.719Z,49.15
2023-03-06T16:44:40.835Z,49.66
2023-03-06T16:47:12.156Z,49.82
2023-03-06T16:49:39.871Z,49.76
2023-03-06T16:52:08.907Z,48.91
2023-03-06T16:54:36.491Z,49.25
2023-03-06T16:57:04.268Z,49.11
2023-03-06T16:59:32.206Z,48.97
2023-03-06T17:02:00.336Z,49.03
2023-03-06T17:04:37.488Z,48.47
2023-03-06T17:07:06.478Z,48.88
2023-03-06T17:09:34.207Z,48.78
2023-03-06T17:12:01.709Z,48.56
2023-03-06T17:14:30.272Z,48.26
2023-03-06T17:16:59.066Z,48.03
2023-03-06T17:19:27.116Z,48.98
2023-03-06T17:21:54.901Z,48.75
2023-03-06T17:24:22.749Z,49.83
2023-03-06T17:26:55.249Z,49.72
2023-03-06T17:29:22.866Z,49.07
2023-03-06T17:31:50.527Z,49.26
2023-03-06T17:34:18.472Z,49.59
2023-03-06T17:36:46.233Z,49.08
2023-03-06T17:39:13.806Z,48.63
2023-03-06T17:41:42.440Z,48.76
2023-03-06T17:44:12.570Z,48.64
2023-03-06T17:46:40.166Z,48.46
2023-03-06T17:49:07.819Z,48.81
2023-03-06T17:51:35.516Z,48.93
2023-03-06T17:54:03.205Z,48.52
2023-03-06T17:56:30.999Z,48.84
2023-03-06T17:58:59.925Z,48.44
2023-03-06T18:01:28.869Z,48.90
2023-03-06T18:03:56.847Z,49.48
2023-03-06T18:06:26.488Z,49.18
2023-03-06T18:08:54.837Z,49.60
2023-03-06T18:11:23.135Z,49.39
2023-03-06T18:13:51.060Z,49.10
2023-03-06T18:16:21.294Z,49.84
2023-03-06T18:18:52.337Z,51.23
2023-03-06T18:21:21.424Z,50.93
2023-03-06T18:23:49.106Z,50.08
2023-03-06T18:26:26.215Z,50.90
2023-03-06T18:29:04.047Z,50.63
2023-03-06T18:31:35.902Z,50.73
2023-03-06T18:34:09.108Z,50.75
2023-03-06T18:36:37.561Z,52.26
2023-03-06T18:39:09.962Z,52.91
2023-03-06T18:41:40.041Z,51.08
2023-03-06T18:44:07.944Z,51.35
2023-03-06T18:46:38.242Z,52.61
2023-03-06T18:49:07.013Z,51.07
2023-03-06T18:51:34.865Z,51.17
2023-03-06T18:54:04.778Z,51.40
2023-03-06T18:56:33.078Z,51.20
2023-03-06T18:59:05.893Z,52.42
2023-03-06T19:01:34.795Z,50.47
2023-03-06T19:04:04.511Z,50.33
2023-03-06T19:06:32.168Z,50.48
2023-03-06T19:09:01.722Z,51.27
2023-03-06T19:11:29.866Z,51.65
2023-03-06T19:13:57.624Z,52.13
2023-03-06T19:16:27.819Z,53.13
2023-03-06T19:18:56.062Z,52.69
2023-03-06T19:21:26.310Z,52.88
2023-03-06T19:23:54.838Z,52.37
2023-03-06T19:26:22.843Z,52.04
2023-03-06T19:28:51.232Z,52.87
2023-03-06T19:31:24.530Z,52.46
2023-03-06T19:33:56.996Z,51.76
2023-03-06T19:36:33.753Z,53.20
2023-03-06T19:39:04.371Z,53.06
2023-03-06T19:41:32.089Z,52.85
2023-03-06T19:44:02.905Z,53.67
2023-03-06T19:46:32.062Z,52.79
2023-03-06T19:49:01.957Z,52.53
2023-03-06T19:51:30.298Z,52.14
2023-03-06T19:53:58.628Z,53.40
2023-03-06T19:56:29.390Z,53.79
2023-03-06T19:58:58.521Z,53.64
2023-03-06T20:01:28.656Z,54.29
2023-03-06T20:03:59.575Z,55.14
2023-03-06T20:06:32.436Z,55.46
2023-03-06T20:09:11.886Z,55.36
2023-03-06T20:11:39.513Z,58.35
2023-03-06T20:14:09.028Z,61.99
2023-03-06T20:16:36.640Z,64.00
2023-03-06T20:19:04.997Z,67.12
2023-03-06T20:21:38.359Z,69.38
2023-03-06T20:24:07.384Z,65.83
2023-03-06T20:26:36.990Z,60.47
2023-03-06T20:29:04.707Z,60.23
2023-03-06T20:31:32.331Z,60.95
2023-03-06T20:34:00.370Z,59.67
2023-03-06T20:36:30.664Z,57.82
2023-03-06T20:39:02.439Z,56.93
2023-03-06T20:41:31.248Z,55.50
2023-03-06T20:44:01.150Z,56.79
2023-03-06T20:46:29.695Z,56.25
2023-03-06T20:48:58.495Z,56.80
2023-03-06T20:51:31.914Z,58.77
2023-03-06T20:54:01.529Z,61.52
2023-03-06T20:56:32.164Z,59.50
2023-03-06T20:58:59.958Z,57.77
2023-03-06T21:01:32.554Z,59.78
2023-03-06T21:04:01.470Z,58.89
2023-03-06T21:06:29.725Z,56.30
2023-03-06T21:08:58.411Z,55.90
2023-03-06T21:11:26.329Z,54.97
2023-03-06T21:13:54.381Z,55.13
2023-03-06T21:16:25.051Z,55.48
2023-03-06T21:18:55.239Z,54.60
2023-03-06T21:21:26.833Z,53.65
2023-03-06T21:23:54.650Z,52.95
2023-03-06T21:26:24.241Z,52.90
2023-03-06T21:28:53.145Z,52.60
2023-03-06T21:31:22.250Z,52.58
2023-03-06T21:33:51.091Z,52.70
2023-03-06T21:36:21.724Z,52.81
2023-03-06T21:38:50.698Z,52.86
2023-03-06T21:41:26.921Z,51.86
2023-03-06T21:43:59.534Z,51.57
2023-03-06T21:46:28.485Z,51.45
2023-03-06T21:48:57.230Z,51.54
2023-03-06T21:51:26.714Z,52.74
2023-03-06T21:53:55.275Z,51.37
2023-03-06T21:56:25.663Z,52.44
2023-03-06T21:58:53.504Z,52.47
2023-03-06T22:01:27.155Z,53.16
2023-03-06T22:03:55.580Z,53.47
2023-03-06T22:06:26.524Z,54.26
2023-03-06T22:08:55.836Z,54.22
2023-03-06T22:11:25.687Z,53.92
2023-03-06T22:13:53.668Z,53.04
2023-03-06T22:16:21.381Z,52.71
2023-03-06T22:18:50.692Z,53.29
2023-03-06T22:21:20.875Z,52.51
2023-03-06T22:23:58.768Z,52.88
2023-03-06T22:26:31.770Z,52.95
2023-03-06T22:28:59.271Z,53.02
2023-03-06T22:31:28.982Z,53.98
2023-03-06T22:33:58.980Z,54.28
2023-03-06T22:36:28.331Z,54.34
2023-03-06T22:38:58.633Z,54.50
2023-03-06T22:41:27.111Z,54.25
2023-03-06T22:43:59.298Z,55.08
2023-03-06T22:46:27.722Z,54.05
2023-03-06T22:48:59.567Z,54.79
2023-03-06T22:51:28.417Z,53.91
2023-03-06T22:53:55.977Z,53.31
2023-03-06T22:56:23.657Z,53.74
2023-03-06T22:58:51.678Z,53.47
2023-03-06T23:01:21.581Z,53.43
2023-03-06T23:03:54.904Z,53.61
2023-03-06T23:06:28.717Z,53.49
2023-03-06T23:09:02.091Z,52.21
2023-03-06T23:11:30.493Z,51.15
2023-03-06T23:14:18.586Z,52.35
2023-03-06T23:17:05.175Z,52.07
2023-03-06T23:19:51.245Z,52.02
2023-03-06T23:22:37.122Z,51.63
2023-03-06T23:25:23.305Z,51.80
2023-03-06T23:27:50.882Z,51.85
2023-03-06T23:30:18.759Z,52.73
2023-03-06T23:32:46.437Z,53.02
2023-03-06T23:35:14.530Z,53.01
2023-03-06T23:37:42.472Z,52.85
2023-03-06T23:40:10.847Z,53.55
2023-03-06T23:42:39.739Z,53.18
2023-03-06T23:45:07.963Z,53.42
2023-03-06T23:47:35.495Z,53.67
2023-03-06T23:50:03.286Z,54.05
2023-03-06T23:52:31.337Z,54.35
2023-03-06T23:54:59.330Z,54.15
2023-03-06T23:57:27.305Z,54.38
2023-03-06T23:59:54.893Z,55.03
